sensor_id;sensor_type;location;lat;lon;timestamp;P1;durP1;ratioP1;P2;durP2;ratioP2
20415;SDS011;10367;52.202;5.996;2022-08-20T00:00:57;23.43;;;21.03;;
20415;SDS011;10367;52.202;5.996;2022-08-20T00:03:29;22.37;;;20.17;;
20415;SDS011;10367;52.202;5.996;2022-08-20T00:05:59;22.93;;;20.73;;
20415;SDS011;10367;52.202;5.996;2022-08-20T00:08:31;22.13;;;19.93;;
20415;SDS011;10367;52.202;5.996;2022-08-20T00:11:00;24.10;;;21.47;;
20415;SDS011;10367;52.202;5.996;2022-08-20T00:13:30;24.33;;;20.17;;
20415;SDS011;10367;52.202;5.996;2022-08-20T00:16:03;23.70;;;21.23;;
20415;SDS011;10367;52.202;5.996;2022-08-20T00:18:32;22.07;;;19.93;;
20415;SDS011;10367;52.202;5.996;2022-08-20T00:21:03;23.40;;;20.90;;
20415;SDS011;10367;52.202;5.996;2022-08-20T00:23:34;21.83;;;19.50;;
20415;SDS011;10367;52.202;5.996;2022-08-20T00:26:04;23.80;;;20.93;;
20415;SDS011;10367;52.202;5.996;2022-08-20T00:28:33;24.27;;;21.77;;
20415;SDS011;10367;52.202;5.996;2022-08-20T00:31:04;24.07;;;21.67;;
20415;SDS011;10367;52.202;5.996;2022-08-20T00:33:35;26.70;;;22.43;;
20415;SDS011;10367;52.202;5.996;2022-08-20T00:36:05;22.17;;;20.07;;
20415;SDS011;10367;52.202;5.996;2022-08-20T00:38:36;22.80;;;19.80;;
20415;SDS011;10367;52.202;5.996;2022-08-20T00:41:07;23.70;;;21.20;;
20415;SDS011;10367;52.202;5.996;2022-08-20T00:43:40;27.63;;;21.10;;
20415;SDS011;10367;52.202;5.996;2022-08-20T00:46:15;22.77;;;20.47;;
20415;SDS011;10367;52.202;5.996;2022-08-20T00:48:47;21.43;;;19.53;;
20415;SDS011;10367;52.202;5.996;2022-08-20T00:51:22;21.43;;;19.33;;
20415;SDS011;10367;52.202;5.996;2022-08-20T00:53:57;21.20;;;19.30;;
20415;SDS011;10367;52.202;5.996;2022-08-20T00:56:29;21.47;;;19.40;;
20415;SDS011;10367;52.202;5.996;2022-08-20T00:59:00;22.83;;;20.60;;
20415;SDS011;10367;52.202;5.996;2022-08-20T01:01:32;22.83;;;20.57;;
20415;SDS011;10367;52.202;5.996;2022-08-20T01:04:22;22.30;;;18.57;;
20415;SDS011;10367;52.202;5.996;2022-08-20T01:06:52;22.63;;;20.50;;
20415;SDS011;10367;52.202;5.996;2022-08-20T01:09:22;21.93;;;19.83;;
20415;SDS011;10367;52.202;5.996;2022-08-20T01:12:11;22.03;;;19.93;;
20415;SDS011;10367;52.202;5.996;2022-08-20T01:14:42;21.13;;;19.17;;
20415;SDS011;10367;52.202;5.996;2022-08-20T01:17:14;23.63;;;21.10;;
20415;SDS011;10367;52.202;5.996;2022-08-20T01:19:47;21.50;;;19.33;;
20415;SDS011;10367;52.202;5.996;2022-08-20T01:22:20;23.40;;;20.97;;
20415;SDS011;10367;52.202;5.996;2022-08-20T01:25:14;22.87;;;20.27;;
20415;SDS011;10367;52.202;5.996;2022-08-20T01:27:51;22.17;;;20.00;;
20415;SDS011;10367;52.202;5.996;2022-08-20T01:30:25;22.00;;;19.80;;
20415;SDS011;10367;52.202;5.996;2022-08-20T01:32:55;23.77;;;21.30;;
20415;SDS011;10367;52.202;5.996;2022-08-20T01:35:24;20.70;;;18.83;;
20415;SDS011;10367;52.202;5.996;2022-08-20T01:37:55;21.83;;;19.60;;
20415;SDS011;10367;52.202;5.996;2022-08-20T01:40:26;22.43;;;20.23;;
20415;SDS011;10367;52.202;5.996;2022-08-20T01:43:12;21.33;;;19.17;;
20415;SDS011;10367;52.202;5.996;2022-08-20T01:45:43;21.30;;;19.27;;
20415;SDS011;10367;52.202;5.996;2022-08-20T01:48:15;23.40;;;20.40;;
20415;SDS011;10367;52.202;5.996;2022-08-20T01:50:47;20.83;;;19.03;;
20415;SDS011;10367;52.202;5.996;2022-08-20T01:53:24;21.87;;;19.70;;
20415;SDS011;10367;52.202;5.996;2022-08-20T01:55:59;20.83;;;18.93;;
20415;SDS011;10367;52.202;5.996;2022-08-20T01:58:30;22.57;;;20.30;;
20415;SDS011;10367;52.202;5.996;2022-08-20T02:01:00;24.20;;;21.67;;
20415;SDS011;10367;52.202;5.996;2022-08-20T02:03:29;20.60;;;18.80;;
20415;SDS011;10367;52.202;5.996;2022-08-20T02:06:04;24.57;;;20.47;;
20415;SDS011;10367;52.202;5.996;2022-08-20T02:08:33;22.03;;;20.03;;
20415;SDS011;10367;52.202;5.996;2022-08-20T02:11:02;22.30;;;19.97;;
20415;SDS011;10367;52.202;5.996;2022-08-20T02:13:32;22.03;;;19.93;;
20415;SDS011;10367;52.202;5.996;2022-08-20T02:16:00;25.87;;;20.50;;
20415;SDS011;10367;52.202;5.996;2022-08-20T02:18:29;22.07;;;19.70;;
20415;SDS011;10367;52.202;5.996;2022-08-20T02:20:58;21.23;;;19.23;;
20415;SDS011;10367;52.202;5.996;2022-08-20T02:23:27;23.30;;;21.03;;
20415;SDS011;10367;52.202;5.996;2022-08-20T02:25:57;21.60;;;19.53;;
20415;SDS011;10367;52.202;5.996;2022-08-20T02:28:26;19.07;;;17.40;;
20415;SDS011;10367;52.202;5.996;2022-08-20T02:30:57;21.00;;;19.03;;
20415;SDS011;10367;52.202;5.996;2022-08-20T02:33:27;22.80;;;20.33;;
20415;SDS011;10367;52.202;5.996;2022-08-20T02:35:56;20.90;;;18.87;;
20415;SDS011;10367;52.202;5.996;2022-08-20T02:38:25;20.33;;;18.33;;
20415;SDS011;10367;52.202;5.996;2022-08-20T02:40:53;23.23;;;20.90;;
20415;SDS011;10367;52.202;5.996;2022-08-20T02:43:22;19.20;;;17.60;;
20415;SDS011;10367;52.202;5.996;2022-08-20T02:45:51;22.87;;;18.80;;
20415;SDS011;10367;52.202;5.996;2022-08-20T02:48:21;20.93;;;18.73;;
20415;SDS011;10367;52.202;5.996;2022-08-20T02:50:51;20.43;;;18.53;;
20415;SDS011;10367;52.202;5.996;2022-08-20T02:53:22;20.93;;;18.93;;
20415;SDS011;10367;52.202;5.996;2022-08-20T02:55:52;21.90;;;19.63;;
20415;SDS011;10367;52.202;5.996;2022-08-20T02:58:22;22.07;;;19.90;;
20415;SDS011;10367;52.202;5.996;2022-08-20T03:00:51;22.20;;;20.00;;
20415;SDS011;10367;52.202;5.996;2022-08-20T03:03:21;21.30;;;19.20;;
20415;SDS011;10367;52.202;5.996;2022-08-20T03:05:52;20.23;;;18.37;;
20415;SDS011;10367;52.202;5.996;2022-08-20T03:08:22;20.87;;;18.67;;
20415;SDS011;10367;52.202;5.996;2022-08-20T03:10:52;21.40;;;19.33;;
20415;SDS011;10367;52.202;5.996;2022-08-20T03:13:21;21.63;;;19.40;;
20415;SDS011;10367;52.202;5.996;2022-08-20T03:15:51;21.60;;;19.53;;
20415;SDS011;10367;52.202;5.996;2022-08-20T03:18:27;22.60;;;20.23;;
20415;SDS011;10367;52.202;5.996;2022-08-20T03:20:56;20.67;;;18.80;;
20415;SDS011;10367;52.202;5.996;2022-08-20T03:23:26;20.37;;;18.40;;
20415;SDS011;10367;52.202;5.996;2022-08-20T03:25:55;20.30;;;18.03;;
20415;SDS011;10367;52.202;5.996;2022-08-20T03:28:23;20.03;;;18.17;;
20415;SDS011;10367;52.202;5.996;2022-08-20T03:30:52;21.30;;;19.03;;
20415;SDS011;10367;52.202;5.996;2022-08-20T03:33:22;19.87;;;18.27;;
20415;SDS011;10367;52.202;5.996;2022-08-20T03:35:52;22.20;;;20.07;;
20415;SDS011;10367;52.202;5.996;2022-08-20T03:38:21;20.53;;;18.53;;
20415;SDS011;10367;52.202;5.996;2022-08-20T03:40:59;23.57;;;20.17;;
20415;SDS011;10367;52.202;5.996;2022-08-20T03:43:29;22.00;;;19.23;;
20415;SDS011;10367;52.202;5.996;2022-08-20T03:45:58;19.60;;;17.80;;
20415;SDS011;10367;52.202;5.996;2022-08-20T03:48:27;21.50;;;19.27;;
20415;SDS011;10367;52.202;5.996;2022-08-20T03:50:58;25.23;;;19.67;;
20415;SDS011;10367;52.202;5.996;2022-08-20T03:53:28;20.27;;;17.90;;
20415;SDS011;10367;52.202;5.996;2022-08-20T03:55:58;21.17;;;19.03;;
20415;SDS011;10367;52.202;5.996;2022-08-20T03:58:30;22.13;;;19.87;;
20415;SDS011;10367;52.202;5.996;2022-08-20T04:01:02;23.90;;;20.97;;
20415;SDS011;10367;52.202;5.996;2022-08-20T04:03:38;20.90;;;18.90;;
20415;SDS011;10367;52.202;5.996;2022-08-20T04:06:08;23.37;;;19.07;;
20415;SDS011;10367;52.202;5.996;2022-08-20T04:08:37;26.90;;;18.97;;
20415;SDS011;10367;52.202;5.996;2022-08-20T04:11:07;24.13;;;19.73;;
20415;SDS011;10367;52.202;5.996;2022-08-20T04:13:36;21.03;;;18.97;;
20415;SDS011;10367;52.202;5.996;2022-08-20T04:16:09;20.47;;;18.43;;
20415;SDS011;10367;52.202;5.996;2022-08-20T04:18:40;21.23;;;19.13;;
20415;SDS011;10367;52.202;5.996;2022-08-20T04:21:29;26.20;;;19.53;;
20415;SDS011;10367;52.202;5.996;2022-08-20T04:23:59;22.00;;;19.77;;
20415;SDS011;10367;52.202;5.996;2022-08-20T04:26:29;21.53;;;19.00;;
20415;SDS011;10367;52.202;5.996;2022-08-20T04:28:58;23.67;;;18.90;;
20415;SDS011;10367;52.202;5.996;2022-08-20T04:31:27;19.83;;;17.83;;
20415;SDS011;10367;52.202;5.996;2022-08-20T04:33:59;20.00;;;17.83;;
20415;SDS011;10367;52.202;5.996;2022-08-20T04:36:30;21.60;;;19.53;;
20415;SDS011;10367;52.202;5.996;2022-08-20T04:38:59;24.83;;;19.83;;
20415;SDS011;10367;52.202;5.996;2022-08-20T04:41:27;21.30;;;18.93;;
20415;SDS011;10367;52.202;5.996;2022-08-20T04:43:56;20.83;;;18.63;;
20415;SDS011;10367;52.202;5.996;2022-08-20T04:46:25;18.77;;;16.87;;
20415;SDS011;10367;52.202;5.996;2022-08-20T04:48:55;20.67;;;18.40;;
20415;SDS011;10367;52.202;5.996;2022-08-20T04:51:24;20.57;;;18.03;;
20415;SDS011;10367;52.202;5.996;2022-08-20T04:53:55;18.40;;;16.83;;
20415;SDS011;10367;52.202;5.996;2022-08-20T04:56:25;18.87;;;17.27;;
20415;SDS011;10367;52.202;5.996;2022-08-20T04:58:56;20.90;;;18.30;;
20415;SDS011;10367;52.202;5.996;2022-08-20T05:01:27;18.60;;;16.77;;
20415;SDS011;10367;52.202;5.996;2022-08-20T05:03:56;18.70;;;16.90;;
20415;SDS011;10367;52.202;5.996;2022-08-20T05:06:26;20.50;;;18.37;;
20415;SDS011;10367;52.202;5.996;2022-08-20T05:08:59;22.57;;;19.83;;
20415;SDS011;10367;52.202;5.996;2022-08-20T05:11:28;20.67;;;18.57;;
20415;SDS011;10367;52.202;5.996;2022-08-20T05:14:03;19.30;;;17.60;;
20415;SDS011;10367;52.202;5.996;2022-08-20T05:16:35;18.90;;;17.07;;
20415;SDS011;10367;52.202;5.996;2022-08-20T05:19:08;20.93;;;18.70;;
20415;SDS011;10367;52.202;5.996;2022-08-20T05:21:38;23.33;;;18.30;;
20415;SDS011;10367;52.202;5.996;2022-08-20T05:24:08;22.37;;;19.07;;
20415;SDS011;10367;52.202;5.996;2022-08-20T05:26:38;21.03;;;18.87;;
20415;SDS011;10367;52.202;5.996;2022-08-20T05:29:06;24.77;;;20.63;;
20415;SDS011;10367;52.202;5.996;2022-08-20T05:31:35;22.17;;;19.80;;
20415;SDS011;10367;52.202;5.996;2022-08-20T05:34:05;21.37;;;18.80;;
20415;SDS011;10367;52.202;5.996;2022-08-20T05:36:37;21.23;;;18.67;;
20415;SDS011;10367;52.202;5.996;2022-08-20T05:39:08;26.23;;;18.80;;
20415;SDS011;10367;52.202;5.996;2022-08-20T05:41:39;20.57;;;18.40;;
20415;SDS011;10367;52.202;5.996;2022-08-20T05:44:08;22.20;;;19.57;;
20415;SDS011;10367;52.202;5.996;2022-08-20T05:46:40;21.00;;;18.73;;
20415;SDS011;10367;52.202;5.996;2022-08-20T05:49:11;21.63;;;19.40;;
20415;SDS011;10367;52.202;5.996;2022-08-20T05:51:42;19.90;;;17.80;;
20415;SDS011;10367;52.202;5.996;2022-08-20T05:54:12;26.83;;;21.83;;
20415;SDS011;10367;52.202;5.996;2022-08-20T05:56:41;21.70;;;19.03;;
20415;SDS011;10367;52.202;5.996;2022-08-20T05:59:10;21.00;;;19.07;;
20415;SDS011;10367;52.202;5.996;2022-08-20T06:01:40;20.70;;;18.77;;
20415;SDS011;10367;52.202;5.996;2022-08-20T06:04:09;22.50;;;20.13;;
20415;SDS011;10367;52.202;5.996;2022-08-20T06:06:54;19.83;;;17.93;;
20415;SDS011;10367;52.202;5.996;2022-08-20T06:09:26;20.90;;;18.77;;
20415;SDS011;10367;52.202;5.996;2022-08-20T06:11:59;20.17;;;18.37;;
20415;SDS011;10367;52.202;5.996;2022-08-20T06:14:29;19.30;;;17.73;;
20415;SDS011;10367;52.202;5.996;2022-08-20T06:17:05;20.60;;;18.50;;
20415;SDS011;10367;52.202;5.996;2022-08-20T06:19:36;21.80;;;19.07;;
20415;SDS011;10367;52.202;5.996;2022-08-20T06:22:10;23.57;;;20.57;;
20415;SDS011;10367;52.202;5.996;2022-08-20T06:24:52;18.07;;;16.47;;
20415;SDS011;10367;52.202;5.996;2022-08-20T06:27:21;20.30;;;18.50;;
20415;SDS011;10367;52.202;5.996;2022-08-20T06:29:50;20.27;;;18.37;;
20415;SDS011;10367;52.202;5.996;2022-08-20T06:32:20;19.73;;;17.47;;
20415;SDS011;10367;52.202;5.996;2022-08-20T06:34:58;22.87;;;19.83;;
20415;SDS011;10367;52.202;5.996;2022-08-20T06:37:29;20.10;;;18.30;;
20415;SDS011;10367;52.202;5.996;2022-08-20T06:40:02;24.40;;;19.73;;
20415;SDS011;10367;52.202;5.996;2022-08-20T06:42:33;21.27;;;19.20;;
20415;SDS011;10367;52.202;5.996;2022-08-20T06:45:02;24.60;;;20.53;;
20415;SDS011;10367;52.202;5.996;2022-08-20T06:47:31;23.77;;;20.13;;
20415;SDS011;10367;52.202;5.996;2022-08-20T06:50:01;23.33;;;19.93;;
20415;SDS011;10367;52.202;5.996;2022-08-20T06:52:29;21.60;;;19.27;;
20415;SDS011;10367;52.202;5.996;2022-08-20T06:55:19;24.60;;;20.57;;
20415;SDS011;10367;52.202;5.996;2022-08-20T06:57:54;22.93;;;18.13;;
20415;SDS011;10367;52.202;5.996;2022-08-20T07:00:25;20.53;;;18.57;;
20415;SDS011;10367;52.202;5.996;2022-08-20T07:02:55;24.03;;;20.07;;
20415;SDS011;10367;52.202;5.996;2022-08-20T07:05:26;21.77;;;19.17;;
20415;SDS011;10367;52.202;5.996;2022-08-20T07:07:55;24.07;;;18.30;;
20415;SDS011;10367;52.202;5.996;2022-08-20T07:10:26;20.63;;;18.67;;
20415;SDS011;10367;52.202;5.996;2022-08-20T07:12:56;21.47;;;19.43;;
20415;SDS011;10367;52.202;5.996;2022-08-20T07:15:25;21.23;;;18.47;;
20415;SDS011;10367;52.202;5.996;2022-08-20T07:17:55;21.50;;;19.17;;
20415;SDS011;10367;52.202;5.996;2022-08-20T07:20:27;21.40;;;19.37;;
20415;SDS011;10367;52.202;5.996;2022-08-20T07:22:57;25.53;;;20.37;;
20415;SDS011;10367;52.202;5.996;2022-08-20T07:25:28;24.63;;;18.97;;
20415;SDS011;10367;52.202;5.996;2022-08-20T07:27:59;20.30;;;18.07;;
20415;SDS011;10367;52.202;5.996;2022-08-20T07:30:29;18.60;;;16.80;;
20415;SDS011;10367;52.202;5.996;2022-08-20T07:33:23;19.53;;;17.50;;
20415;SDS011;10367;52.202;5.996;2022-08-20T07:35:55;21.90;;;16.03;;
20415;SDS011;10367;52.202;5.996;2022-08-20T07:38:25;22.30;;;17.60;;
20415;SDS011;10367;52.202;5.996;2022-08-20T07:40:58;18.93;;;17.20;;
20415;SDS011;10367;52.202;5.996;2022-08-20T07:43:29;19.83;;;17.83;;
20415;SDS011;10367;52.202;5.996;2022-08-20T07:45:58;20.27;;;17.07;;
20415;SDS011;10367;52.202;5.996;2022-08-20T07:48:34;18.73;;;16.87;;
20415;SDS011;10367;52.202;5.996;2022-08-20T07:51:06;24.27;;;19.03;;
20415;SDS011;10367;52.202;5.996;2022-08-20T07:53:37;19.87;;;17.53;;
20415;SDS011;10367;52.202;5.996;2022-08-20T07:56:09;18.67;;;16.90;;
20415;SDS011;10367;52.202;5.996;2022-08-20T07:58:41;21.47;;;17.60;;
20415;SDS011;10367;52.202;5.996;2022-08-20T08:01:16;19.40;;;16.90;;
20415;SDS011;10367;52.202;5.996;2022-08-20T08:03:47;18.23;;;16.80;;
20415;SDS011;10367;52.202;5.996;2022-08-20T08:06:16;18.97;;;17.30;;
20415;SDS011;10367;52.202;5.996;2022-08-20T08:08:57;20.70;;;18.57;;
20415;SDS011;10367;52.202;5.996;2022-08-20T08:11:31;21.57;;;17.77;;
20415;SDS011;10367;52.202;5.996;2022-08-20T08:14:04;22.27;;;18.87;;
20415;SDS011;10367;52.202;5.996;2022-08-20T08:16:35;18.37;;;16.50;;
20415;SDS011;10367;52.202;5.996;2022-08-20T08:19:05;23.77;;;18.80;;
20415;SDS011;10367;52.202;5.996;2022-08-20T08:21:39;19.27;;;17.27;;
20415;SDS011;10367;52.202;5.996;2022-08-20T08:24:09;22.37;;;17.40;;
20415;SDS011;10367;52.202;5.996;2022-08-20T08:26:46;17.60;;;16.00;;
20415;SDS011;10367;52.202;5.996;2022-08-20T08:29:18;21.00;;;18.27;;
20415;SDS011;10367;52.202;5.996;2022-08-20T08:31:47;18.67;;;17.00;;
20415;SDS011;10367;52.202;5.996;2022-08-20T08:34:15;18.53;;;16.77;;
20415;SDS011;10367;52.202;5.996;2022-08-20T08:36:44;18.17;;;16.67;;
20415;SDS011;10367;52.202;5.996;2022-08-20T08:39:13;20.40;;;18.03;;
20415;SDS011;10367;52.202;5.996;2022-08-20T08:41:42;17.97;;;16.47;;
20415;SDS011;10367;52.202;5.996;2022-08-20T08:44:18;18.27;;;16.70;;
20415;SDS011;10367;52.202;5.996;2022-08-20T08:46:50;18.00;;;16.17;;
20415;SDS011;10367;52.202;5.996;2022-08-20T08:49:22;19.77;;;17.83;;
20415;SDS011;10367;52.202;5.996;2022-08-20T08:52:04;19.50;;;17.63;;
20415;SDS011;10367;52.202;5.996;2022-08-20T08:54:37;21.57;;;18.00;;
20415;SDS011;10367;52.202;5.996;2022-08-20T08:57:09;19.27;;;17.40;;
20415;SDS011;10367;52.202;5.996;2022-08-20T08:59:39;20.40;;;18.10;;
20415;SDS011;10367;52.202;5.996;2022-08-20T09:02:28;19.13;;;17.30;;
20415;SDS011;10367;52.202;5.996;2022-08-20T09:04:59;19.70;;;17.97;;
20415;SDS011;10367;52.202;5.996;2022-08-20T09:07:31;18.67;;;16.80;;
20415;SDS011;10367;52.202;5.996;2022-08-20T09:10:02;18.57;;;17.03;;
20415;SDS011;10367;52.202;5.996;2022-08-20T09:12:32;19.30;;;17.60;;
20415;SDS011;10367;52.202;5.996;2022-08-20T09:15:02;20.47;;;18.37;;
20415;SDS011;10367;52.202;5.996;2022-08-20T09:17:32;19.47;;;17.67;;
20415;SDS011;10367;52.202;5.996;2022-08-20T09:20:00;20.97;;;18.80;;
20415;SDS011;10367;52.202;5.996;2022-08-20T09:22:30;21.73;;;19.60;;
20415;SDS011;10367;52.202;5.996;2022-08-20T09:25:00;20.60;;;18.67;;
20415;SDS011;10367;52.202;5.996;2022-08-20T09:27:29;20.20;;;18.47;;
20415;SDS011;10367;52.202;5.996;2022-08-20T09:29:58;20.30;;;18.20;;
20415;SDS011;10367;52.202;5.996;2022-08-20T09:32:28;20.17;;;18.27;;
20415;SDS011;10367;52.202;5.996;2022-08-20T09:34:57;22.20;;;19.97;;
20415;SDS011;10367;52.202;5.996;2022-08-20T09:37:27;20.80;;;18.90;;
20415;SDS011;10367;52.202;5.996;2022-08-20T09:40:04;22.30;;;19.07;;
20415;SDS011;10367;52.202;5.996;2022-08-20T09:42:35;21.20;;;19.37;;
20415;SDS011;10367;52.202;5.996;2022-08-20T09:45:08;22.50;;;20.43;;
20415;SDS011;10367;52.202;5.996;2022-08-20T09:47:39;20.00;;;18.40;;
20415;SDS011;10367;52.202;5.996;2022-08-20T09:50:23;23.13;;;21.17;;
20415;SDS011;10367;52.202;5.996;2022-08-20T09:52:52;21.80;;;19.97;;
20415;SDS011;10367;52.202;5.996;2022-08-20T09:55:25;22.47;;;20.53;;
20415;SDS011;10367;52.202;5.996;2022-08-20T09:57:59;23.27;;;20.87;;
20415;SDS011;10367;52.202;5.996;2022-08-20T10:00:29;22.10;;;20.37;;
20415;SDS011;10367;52.202;5.996;2022-08-20T10:02:59;23.03;;;21.10;;
20415;SDS011;10367;52.202;5.996;2022-08-20T10:05:29;22.63;;;20.83;;
20415;SDS011;10367;52.202;5.996;2022-08-20T10:07:58;22.17;;;20.30;;
20415;SDS011;10367;52.202;5.996;2022-08-20T10:10:27;22.17;;;20.27;;
20415;SDS011;10367;52.202;5.996;2022-08-20T10:12:55;22.50;;;20.53;;
20415;SDS011;10367;52.202;5.996;2022-08-20T10:15:24;23.30;;;20.87;;
20415;SDS011;10367;52.202;5.996;2022-08-20T10:17:53;20.50;;;18.77;;
20415;SDS011;10367;52.202;5.996;2022-08-20T10:20:24;22.83;;;20.77;;
20415;SDS011;10367;52.202;5.996;2022-08-20T10:22:53;21.53;;;19.80;;
20415;SDS011;10367;52.202;5.996;2022-08-20T10:25:22;23.83;;;21.53;;
20415;SDS011;10367;52.202;5.996;2022-08-20T10:27:50;21.90;;;20.10;;
20415;SDS011;10367;52.202;5.996;2022-08-20T10:30:19;22.53;;;20.40;;
20415;SDS011;10367;52.202;5.996;2022-08-20T10:32:48;22.77;;;20.77;;
20415;SDS011;10367;52.202;5.996;2022-08-20T10:35:17;23.63;;;21.43;;
20415;SDS011;10367;52.202;5.996;2022-08-20T10:37:47;21.03;;;19.40;;
20415;SDS011;10367;52.202;5.996;2022-08-20T10:40:16;23.10;;;21.13;;
20415;SDS011;10367;52.202;5.996;2022-08-20T10:42:45;21.93;;;20.00;;
20415;SDS011;10367;52.202;5.996;2022-08-20T10:45:14;22.20;;;20.37;;
20415;SDS011;10367;52.202;5.996;2022-08-20T10:47:43;20.20;;;18.57;;
20415;SDS011;10367;52.202;5.996;2022-08-20T10:50:13;22.20;;;20.17;;
20415;SDS011;10367;52.202;5.996;2022-08-20T10:52:45;23.20;;;20.90;;
20415;SDS011;10367;52.202;5.996;2022-08-20T10:55:17;23.60;;;21.30;;
20415;SDS011;10367;52.202;5.996;2022-08-20T10:57:46;21.57;;;19.90;;
20415;SDS011;10367;52.202;5.996;2022-08-20T11:00:16;23.20;;;21.17;;
20415;SDS011;10367;52.202;5.996;2022-08-20T11:02:45;22.90;;;20.73;;
20415;SDS011;10367;52.202;5.996;2022-08-20T11:05:14;23.87;;;21.90;;
20415;SDS011;10367;52.202;5.996;2022-08-20T11:07:43;22.20;;;20.43;;
20415;SDS011;10367;52.202;5.996;2022-08-20T11:10:29;24.77;;;22.50;;
20415;SDS011;10367;52.202;5.996;2022-08-20T11:12:59;25.70;;;23.30;;
20415;SDS011;10367;52.202;5.996;2022-08-20T11:15:29;23.57;;;21.67;;
20415;SDS011;10367;52.202;5.996;2022-08-20T11:17:59;22.83;;;21.20;;
20415;SDS011;10367;52.202;5.996;2022-08-20T11:20:28;24.60;;;22.50;;
20415;SDS011;10367;52.202;5.996;2022-08-20T11:22:57;23.40;;;21.67;;
20415;SDS011;10367;52.202;5.996;2022-08-20T11:25:28;25.17;;;23.07;;
20415;SDS011;10367;52.202;5.996;2022-08-20T11:27:56;23.03;;;21.43;;
20415;SDS011;10367;52.202;5.996;2022-08-20T11:30:26;24.13;;;22.43;;
20415;SDS011;10367;52.202;5.996;2022-08-20T11:32:58;25.07;;;22.73;;
20415;SDS011;10367;52.202;5.996;2022-08-20T11:35:28;23.67;;;21.87;;
20415;SDS011;10367;52.202;5.996;2022-08-20T11:38:16;25.43;;;23.10;;
20415;SDS011;10367;52.202;5.996;2022-08-20T11:40:46;22.83;;;21.47;;
20415;SDS011;10367;52.202;5.996;2022-08-20T11:43:15;24.33;;;22.37;;
20415;SDS011;10367;52.202;5.996;2022-08-20T11:45:44;24.17;;;21.53;;
20415;SDS011;10367;52.202;5.996;2022-08-20T11:48:18;24.33;;;22.57;;
20415;SDS011;10367;52.202;5.996;2022-08-20T11:50:47;24.07;;;22.30;;
20415;SDS011;10367;52.202;5.996;2022-08-20T11:53:17;24.87;;;22.80;;
20415;SDS011;10367;52.202;5.996;2022-08-20T11:55:48;23.90;;;22.00;;
20415;SDS011;10367;52.202;5.996;2022-08-20T11:58:18;24.50;;;22.67;;
20415;SDS011;10367;52.202;5.996;2022-08-20T12:00:47;24.60;;;22.67;;
20415;SDS011;10367;52.202;5.996;2022-08-20T12:03:16;24.87;;;22.60;;
20415;SDS011;10367;52.202;5.996;2022-08-20T12:05:44;23.70;;;21.97;;
20415;SDS011;10367;52.202;5.996;2022-08-20T12:08:14;25.30;;;23.30;;
20415;SDS011;10367;52.202;5.996;2022-08-20T12:10:55;23.63;;;21.77;;
20415;SDS011;10367;52.202;5.996;2022-08-20T12:13:26;24.10;;;22.20;;
20415;SDS011;10367;52.202;5.996;2022-08-20T12:16:15;23.07;;;21.27;;
20415;SDS011;10367;52.202;5.996;2022-08-20T12:18:44;22.73;;;21.17;;
20415;SDS011;10367;52.202;5.996;2022-08-20T12:21:14;23.37;;;21.53;;
20415;SDS011;10367;52.202;5.996;2022-08-20T12:23:43;22.23;;;20.73;;
20415;SDS011;10367;52.202;5.996;2022-08-20T12:26:13;22.03;;;20.43;;
20415;SDS011;10367;52.202;5.996;2022-08-20T12:28:42;23.17;;;21.47;;
20415;SDS011;10367;52.202;5.996;2022-08-20T12:31:11;24.70;;;22.90;;
20415;SDS011;10367;52.202;5.996;2022-08-20T12:33:40;24.23;;;22.33;;
20415;SDS011;10367;52.202;5.996;2022-08-20T12:36:08;24.60;;;22.43;;
20415;SDS011;10367;52.202;5.996;2022-08-20T12:38:37;24.57;;;22.63;;
20415;SDS011;10367;52.202;5.996;2022-08-20T12:41:06;25.43;;;23.10;;
20415;SDS011;10367;52.202;5.996;2022-08-20T12:43:36;24.60;;;22.67;;
20415;SDS011;10367;52.202;5.996;2022-08-20T12:46:05;22.47;;;20.97;;
20415;SDS011;10367;52.202;5.996;2022-08-20T12:48:33;25.37;;;23.03;;
20415;SDS011;10367;52.202;5.996;2022-08-20T12:51:02;23.40;;;21.40;;
20415;SDS011;10367;52.202;5.996;2022-08-20T12:53:31;25.00;;;23.00;;
20415;SDS011;10367;52.202;5.996;2022-08-20T12:56:02;22.47;;;21.03;;
20415;SDS011;10367;52.202;5.996;2022-08-20T12:58:31;24.40;;;22.53;;
20415;SDS011;10367;52.202;5.996;2022-08-20T13:01:01;25.77;;;23.40;;
20415;SDS011;10367;52.202;5.996;2022-08-20T13:03:30;24.57;;;22.77;;
20415;SDS011;10367;52.202;5.996;2022-08-20T13:06:08;23.57;;;21.97;;
20415;SDS011;10367;52.202;5.996;2022-08-20T13:08:37;23.30;;;21.70;;
20415;SDS011;10367;52.202;5.996;2022-08-20T13:11:06;24.67;;;22.77;;
20415;SDS011;10367;52.202;5.996;2022-08-20T13:13:34;24.10;;;22.07;;
20415;SDS011;10367;52.202;5.996;2022-08-20T13:16:04;26.23;;;23.87;;
20415;SDS011;10367;52.202;5.996;2022-08-20T13:18:33;25.30;;;23.07;;
20415;SDS011;10367;52.202;5.996;2022-08-20T13:21:02;25.03;;;23.10;;
20415;SDS011;10367;52.202;5.996;2022-08-20T13:23:31;23.53;;;21.87;;
20415;SDS011;10367;52.202;5.996;2022-08-20T13:25:59;26.57;;;24.43;;
20415;SDS011;10367;52.202;5.996;2022-08-20T13:28:28;25.07;;;23.17;;
20415;SDS011;10367;52.202;5.996;2022-08-20T13:30:57;25.10;;;23.23;;
20415;SDS011;10367;52.202;5.996;2022-08-20T13:33:29;25.57;;;23.57;;
20415;SDS011;10367;52.202;5.996;2022-08-20T13:35:58;24.23;;;22.53;;
20415;SDS011;10367;52.202;5.996;2022-08-20T13:38:29;25.10;;;23.00;;
20415;SDS011;10367;52.202;5.996;2022-08-20T13:40:58;24.97;;;23.03;;
20415;SDS011;10367;52.202;5.996;2022-08-20T13:43:26;25.13;;;23.30;;
20415;SDS011;10367;52.202;5.996;2022-08-20T13:45:55;24.37;;;22.60;;
20415;SDS011;10367;52.202;5.996;2022-08-20T13:48:23;25.47;;;23.50;;
20415;SDS011;10367;52.202;5.996;2022-08-20T13:50:53;24.23;;;22.63;;
20415;SDS011;10367;52.202;5.996;2022-08-20T13:53:23;25.63;;;23.50;;
20415;SDS011;10367;52.202;5.996;2022-08-20T13:55:52;25.80;;;23.80;;
20415;SDS011;10367;52.202;5.996;2022-08-20T13:58:21;26.30;;;24.17;;
20415;SDS011;10367;52.202;5.996;2022-08-20T14:00:50;25.70;;;23.53;;
20415;SDS011;10367;52.202;5.996;2022-08-20T14:03:19;25.83;;;23.90;;
20415;SDS011;10367;52.202;5.996;2022-08-20T14:05:51;23.47;;;21.83;;
20415;SDS011;10367;52.202;5.996;2022-08-20T14:08:22;25.67;;;23.93;;
20415;SDS011;10367;52.202;5.996;2022-08-20T14:10:51;23.80;;;22.30;;
20415;SDS011;10367;52.202;5.996;2022-08-20T14:13:24;24.37;;;22.67;;
20415;SDS011;10367;52.202;5.996;2022-08-20T14:15:54;25.97;;;24.10;;
20415;SDS011;10367;52.202;5.996;2022-08-20T14:18:23;25.73;;;24.00;;
20415;SDS011;10367;52.202;5.996;2022-08-20T14:20:52;26.67;;;24.70;;
20415;SDS011;10367;52.202;5.996;2022-08-20T14:23:22;24.70;;;22.90;;
20415;SDS011;10367;52.202;5.996;2022-08-20T14:25:50;24.73;;;22.80;;
20415;SDS011;10367;52.202;5.996;2022-08-20T14:28:20;24.23;;;22.47;;
20415;SDS011;10367;52.202;5.996;2022-08-20T14:30:51;24.27;;;22.33;;
20415;SDS011;10367;52.202;5.996;2022-08-20T14:33:20;23.23;;;21.63;;
20415;SDS011;10367;52.202;5.996;2022-08-20T14:35:50;24.17;;;22.17;;
20415;SDS011;10367;52.202;5.996;2022-08-20T14:38:21;25.63;;;23.53;;
20415;SDS011;10367;52.202;5.996;2022-08-20T14:40:49;24.00;;;22.10;;
20415;SDS011;10367;52.202;5.996;2022-08-20T14:43:18;25.57;;;23.53;;